Time;durP1;ratioP1;P1;durP2;ratioP2;P2;SDS_P1;SDS_P2;PMS_P1;PMS_P2;Temp;Humidity;BMP_temperature;BMP_pressure;BME280_temperature;BME280_humidity;BME280_pressure;Samples;Min_cycle;Max_cycle;Signal;HPM_P1;HPM_P2
2023/08/13 00:00:52;;;;;;;1.23;1.17;;;;;;;20.45;100.00;98809.47;4192938;28;20306;-49
2023/08/13 00:02:53;;;;;;;2.47;0.70;;;;;;;20.40;100.00;98809.56;4192583;28;20222;-52
2023/08/13 00:04:55;;;;;;;1.35;0.80;;;;;;;20.38;100.00;98806.28;4171799;28;20227;-49
2023/08/13 00:06:58;;;;;;;1.75;0.90;;;;;;;20.33;100.00;98803.59;4194873;28;20219;-50
2023/08/13 00:09:00;;;;;;;1.02;0.50;;;;;;;20.33;100.00;98803.59;4181209;28;20250;-53
2023/08/13 00:11:08;;;;;;;2.28;0.77;;;;;;;20.32;100.00;98802.75;4210003;28;20745;-54
2023/08/13 00:13:10;;;;;;;3.22;0.85;;;;;;;20.26;100.00;98803.16;4194377;28;20317;-49
2023/08/13 00:15:12;;;;;;;0.75;0.75;;;;;;;20.21;100.00;98801.31;4194585;28;20238;-52
2023/08/13 00:17:14;;;;;;;0.85;0.77;;;;;;;20.19;100.00;98805.50;4192753;28;20210;-50
2023/08/13 00:19:16;;;;;;;5.63;0.70;;;;;;;20.21;100.00;98803.25;4194048;28;20551;-50
2023/08/13 00:21:18;;;;;;;0.75;0.70;;;;;;;20.17;100.00;98805.00;4193655;28;20203;-49
2023/08/13 00:23:20;;;;;;;1.65;0.98;;;;;;;20.10;100.00;98804.56;4177901;28;20241;-50
2023/08/13 00:25:21;;;;;;;1.02;0.80;;;;;;;20.09;100.00;98805.66;4190744;28;20210;-50
2023/08/13 00:27:23;;;;;;;1.15;0.85;;;;;;;20.08;100.00;98804.88;4193953;28;20268;-50
2023/08/13 00:29:25;;;;;;;6.07;0.70;;;;;;;20.13;100.00;98809.50;4193902;28;20207;-49
2023/08/13 00:31:30;;;;;;;2.22;0.75;;;;;;;20.09;100.00;98805.66;4190771;28;20285;-50
2023/08/13 00:33:31;;;;;;;0.70;0.70;;;;;;;20.11;100.00;98806.22;4175995;28;20275;-50
2023/08/13 00:35:33;;;;;;;1.50;0.70;;;;;;;19.99;100.00;98805.84;4207942;28;20206;-49
2023/08/13 00:37:35;;;;;;;0.70;0.70;;;;;;;19.98;100.00;98801.41;4190245;28;20211;-50
2023/08/13 00:39:37;;;;;;;1.80;0.68;;;;;;;19.97;100.00;98808.09;4185742;28;20692;-50
2023/08/13 00:41:39;;;;;;;1.02;0.57;;;;;;;19.98;100.00;98806.97;4191330;28;20210;-50
2023/08/13 00:43:40;;;;;;;2.15;1.10;;;;;;;20.01;100.00;98806.34;4192321;28;20280;-50
2023/08/13 00:45:43;;;;;;;1.25;0.70;;;;;;;20.04;100.00;98811.31;4175162;28;20203;-50
2023/08/13 00:47:45;;;;;;;0.85;0.85;;;;;;;20.03;100.00;98810.47;4176502;28;20214;-50
2023/08/13 00:49:48;;;;;;;1.45;0.70;;;;;;;20.04;100.00;98795.44;4191294;28;20206;-51
2023/08/13 00:51:50;;;;;;;1.48;0.70;;;;;;;20.03;100.00;98809.63;4196352;28;20245;-50
2023/08/13 00:53:51;;;;;;;0.70;0.70;;;;;;;20.01;100.00;98809.13;4192510;28;20585;-51
2023/08/13 00:55:53;;;;;;;2.30;0.63;;;;;;;20.01;100.00;98800.78;4175735;28;20211;-51
2023/08/13 00:57:55;;;;;;;0.82;0.60;;;;;;;20.02;100.00;98802.44;4192707;28;20687;-51
2023/08/13 00:59:57;;;;;;;0.75;0.75;;;;;;;20.02;100.00;98797.72;4175374;28;20238;-49
2023/08/13 01:01:59;;;;;;;1.45;0.70;;;;;;;20.00;100.00;98802.75;4206738;28;20202;-54
2023/08/13 01:04:01;;;;;;;1.08;0.75;;;;;;;19.95;100.00;98790.88;4191851;28;20397;-52
2023/08/13 01:06:30;;;;;;;1.00;0.90;;;;;;;19.93;100.00;98794.00;4175905;28;20212;-50
2023/08/13 01:08:41;;;;;;;0.85;0.85;;;;;;;19.95;100.00;98793.66;4155655;28;20229;-52
2023/08/13 01:10:47;;;;;;;1.20;1.00;;;;;;;19.92;100.00;98803.44;4182162;28;20293;-50
2023/08/13 01:13:04;;;;;;;1.20;0.88;;;;;;;19.81;100.00;98801.13;4191827;28;20238;-49
2023/08/13 01:15:37;;;;;;;3.67;1.05;;;;;;;19.78;100.00;98796.19;4208501;28;20238;-52
2023/08/13 01:17:39;;;;;;;1.48;1.23;;;;;;;19.87;100.00;98788.81;4190919;28;20206;-50
2023/08/13 01:19:41;;;;;;;2.05;1.00;;;;;;;19.76;100.00;98784.53;4189594;28;20318;-49
2023/08/13 01:21:43;;;;;;;1.92;0.93;;;;;;;19.76;100.00;98792.88;4192058;28;20203;-49
2023/08/13 01:23:45;;;;;;;3.72;1.10;;;;;;;19.73;100.00;98785.16;4192182;28;20266;-50
2023/08/13 01:25:53;;;;;;;3.28;1.65;;;;;;;19.63;100.00;98782.53;4191539;28;20211;-49
2023/08/13 01:27:54;;;;;;;2.95;0.90;;;;;;;19.60;100.00;98777.59;4174141;28;20199;-52
2023/08/13 01:30:23;;;;;;;1.25;0.93;;;;;;;19.60;100.00;98783.13;4206038;28;20562;-50
2023/08/13 01:32:29;;;;;;;1.35;0.90;;;;;;;19.60;100.00;98777.59;4191635;28;20211;-51
2023/08/13 01:34:31;;;;;;;1.63;0.90;;;;;;;19.43;100.00;98783.69;4207180;28;20202;-54
2023/08/13 01:36:33;;;;;;;1.00;0.90;;;;;;;19.50;100.00;98783.28;4174644;28;20235;-50
2023/08/13 01:38:35;;;;;;;0.77;0.77;;;;;;;19.50;100.00;98774.97;4192480;28;20230;-49
2023/08/13 01:40:37;;;;;;;2.45;0.93;;;;;;;19.54;100.00;98782.41;4174722;28;20223;-49
2023/08/13 01:42:39;;;;;;;2.97;1.45;;;;;;;19.52;100.00;98800.50;4193657;28;20202;-50
2023/08/13 01:44:41;;;;;;;1.13;1.00;;;;;;;19.36;100.00;98787.94;4186973;28;20342;-49
2023/08/13 01:46:43;;;;;;;1.45;0.90;;;;;;;19.42;100.00;98792.28;4192409;28;20214;-50
2023/08/13 01:48:44;;;;;;;2.95;1.00;;;;;;;19.36;100.00;98793.50;4193102;28;20203;-50
2023/08/13 01:50:46;;;;;;;7.45;1.20;;;;;;;19.38;100.00;98808.72;4200088;28;20240;-49
2023/08/13 01:52:48;;;;;;;8.82;1.20;;;;;;;19.42;100.00;98811.72;4197199;28;20570;-50
2023/08/13 01:54:50;;;;;;;1.95;1.05;;;;;;;19.50;100.00;98805.50;4201905;28;20215;-50
2023/08/13 01:56:51;;;;;;;2.92;0.85;;;;;;;19.37;100.00;98806.28;4188619;28;20207;-53
2023/08/13 01:58:53;;;;;;;1.10;0.95;;;;;;;19.38;100.00;98802.38;4193765;28;20210;-49
2023/08/13 02:00:55;;;;;;;3.55;0.73;;;;;;;19.36;100.00;98804.59;4191553;28;20222;-50
2023/08/13 02:02:57;;;;;;;0.98;0.90;;;;;;;19.36;100.00;98804.59;4196450;28;20231;-49
2023/08/13 02:04:59;;;;;;;1.52;0.80;;;;;;;19.42;100.00;98800.63;4197626;28;20216;-49
2023/08/13 02:07:01;;;;;;;0.80;0.80;;;;;;;19.47;100.00;98795.00;4178478;28;20208;-50
2023/08/13 02:09:03;;;;;;;1.38;0.80;;;;;;;19.35;100.00;98789.91;4194219;28;20260;-49
2023/08/13 02:11:04;;;;;;;1.98;1.00;;;;;;;19.33;100.00;98794.94;4184738;28;20231;-50
2023/08/13 02:13:06;;;;;;;1.17;0.90;;;;;;;19.30;100.00;98797.47;4184859;28;20237;-51
2023/08/13 02:15:08;;;;;;;1.13;0.70;;;;;;;19.29;100.00;98801.38;4175178;28;20666;-50
2023/08/13 02:17:12;;;;;;;2.55;1.20;;;;;;;19.31;100.00;98790.81;4184695;28;20238;-50
2023/08/13 02:19:14;;;;;;;3.17;0.82;;;;;;;19.37;100.00;98795.16;4184601;28;20207;-50
2023/08/13 02:21:18;;;;;;;2.30;0.90;;;;;;;19.12;100.00;98798.25;4210151;28;20232;-52
2023/08/13 02:23:20;;;;;;;0.90;0.90;;;;;;;19.09;100.00;98804.41;4194772;28;20242;-51
2023/08/13 02:25:21;;;;;;;1.00;1.00;;;;;;;19.21;100.00;98796.50;4176850;28;20210;-51
2023/08/13 02:27:23;;;;;;;1.95;1.00;;;;;;;19.15;100.00;98797.66;4194925;28;20305;-50
2023/08/13 02:29:25;;;;;;;3.00;0.73;;;;;;;19.17;100.00;98795.44;4196424;28;20660;-54
2023/08/13 02:31:27;;;;;;;3.38;0.93;;;;;;;19.10;100.00;98792.16;4196435;28;20206;-50
2023/08/13 02:33:28;;;;;;;4.97;1.10;;;;;;;19.06;100.00;98797.50;4194083;28;20227;-50
2023/08/13 02:35:30;;;;;;;1.73;0.90;;;;;;;19.09;100.00;98799.69;4171251;28;20211;-50
2023/08/13 02:37:32;;;;;;;2.38;0.80;;;;;;;18.92;100.00;98804.88;4196511;28;20219;-50
2023/08/13 02:39:34;;;;;;;1.30;1.20;;;;;;;19.01;100.00;98799.50;4194280;28;20275;-53
2023/08/13 02:41:35;;;;;;;6.47;1.20;;;;;;;18.92;100.00;98798.53;4191745;28;20207;-51
2023/08/13 02:43:54;;;;;;;1.05;0.68;;;;;;;18.89;100.00;98794.41;4193075;28;20662;-49
2023/08/13 02:45:55;;;;;;;0.80;0.65;;;;;;;18.91;100.00;98796.88;4187340;28;20206;-49
2023/08/13 02:47:57;;;;;;;1.30;0.88;;;;;;;18.91;100.00;98796.88;4210715;28;20254;-50
2023/08/13 02:49:59;;;;;;;6.05;0.73;;;;;;;18.93;100.00;98806.53;4194384;28;20203;-50
2023/08/13 02:52:02;;;;;;;4.00;0.70;;;;;;;18.93;100.00;98801.00;4194156;28;20215;-50
2023/08/13 02:54:04;;;;;;;2.15;0.93;;;;;;;18.94;100.00;98804.59;4194042;28;20245;-50
2023/08/13 02:56:05;;;;;;;2.05;0.90;;;;;;;18.92;100.00;98798.53;4192242;28;20204;-50
2023/08/13 02:58:07;;;;;;;2.88;0.80;;;;;;;18.91;100.00;98797.69;4192326;28;20660;-50
2023/08/13 03:00:11;;;;;;;1.10;0.75;;;;;;;18.90;100.00;98797.97;4191727;28;20219;-50
2023/08/13 03:02:15;;;;;;;2.67;1.05;;;;;;;18.86;100.00;98799.72;4207243;28;20207;-50
2023/08/13 03:04:17;;;;;;;2.25;0.80;;;;;;;18.84;100.00;98796.44;4198369;28;20223;-51
2023/08/13 03:06:22;;;;;;;2.75;0.75;;;;;;;18.84;100.00;98801.97;4191626;28;20211;-50
2023/08/13 03:08:24;;;;;;;0.82;0.77;;;;;;;18.86;100.00;98800.53;4192058;28;20266;-49
2023/08/13 03:10:26;;;;;;;1.83;1.00;;;;;;;18.81;100.00;98797.00;4188721;28;20223;-50
2023/08/13 03:12:28;;;;;;;0.95;0.93;;;;;;;18.81;100.00;98788.69;4192639;28;20208;-50
2023/08/13 03:14:29;;;;;;;0.80;0.75;;;;;;;18.80;100.00;98789.81;4189790;28;20596;-50
2023/08/13 03:16:31;;;;;;;1.50;1.40;;;;;;;18.78;100.00;98786.50;4190749;28;20203;-51
2023/08/13 03:18:33;;;;;;;2.03;1.00;;;;;;;18.75;100.00;98781.53;4176734;28;20302;-50
2023/08/13 03:20:35;;;;;;;1.30;0.70;;;;;;;18.75;100.00;98792.63;4195313;28;20227;-50
2023/08/13 03:22:37;;;;;;;3.50;0.88;;;;;;;18.77;100.00;98787.63;4192745;28;20286;-49
2023/08/13 03:24:39;;;;;;;1.05;0.85;;;;;;;18.81;100.00;98780.34;4193805;28;20217;-50
2023/08/13 03:26:41;;;;;;;0.98;0.93;;;;;;;18.65;100.00;98787.22;4193574;28;20257;-50
2023/08/13 03:28:42;;;;;;;3.28;0.80;;;;;;;18.63;100.00;98783.91;4192927;28;20245;-51
2023/08/13 03:30:44;;;;;;;1.02;0.93;;;;;;;18.64;100.00;98786.38;4184782;28;20202;-50
2023/08/13 03:32:46;;;;;;;4.20;1.00;;;;;;;18.68;100.00;98778.31;4183609;28;20456;-52
2023/08/13 03:34:48;;;;;;;1.50;1.10;;;;;;;18.68;100.00;98781.91;4191147;28;20217;-52
2023/08/13 03:36:52;;;;;;;0.85;0.85;;;;;;;18.67;100.00;98784.97;4175464;28;20219;-52
2023/08/13 03:38:56;;;;;;;4.15;1.35;;;;;;;18.66;100.00;98784.13;4192408;28;20250;-51
2023/08/13 03:40:58;;;;;;;1.38;0.90;;;;;;;18.69;100.00;98788.28;4191884;28;20284;-50
2023/08/13 03:43:00;;;;;;;1.13;1.00;;;;;;;18.67;100.00;98787.75;4185264;28;20720;-50
2023/08/13 03:45:01;;;;;;;3.30;1.10;;;;;;;18.67;100.00;98784.97;4209511;28;20646;-50
2023/08/13 03:47:03;;;;;;;2.20;0.85;;;;;;;18.65;100.00;98781.69;4184027;28;20204;-51
2023/08/13 03:49:05;;;;;;;0.82;0.80;;;;;;;18.63;100.00;98783.91;4187911;28;20199;-51
2023/08/13 03:51:07;;;;;;;2.15;0.90;;;;;;;18.62;100.00;98787.81;4185053;28;20203;-50
2023/08/13 03:53:09;;;;;;;1.15;0.80;;;;;;;18.64;100.00;98791.94;4192015;28;20570;-52
2023/08/13 03:55:11;;;;;;;1.00;0.90;;;;;;;18.61;100.00;98792.53;4192193;28;20207;-53
2023/08/13 03:57:12;;;;;;;1.10;1.02;;;;;;;18.60;100.00;98795.59;4191384;28;20203;-49
2023/08/13 03:59:14;;;;;;;5.78;1.23;;;;;;;18.48;100.00;98792.41;4192334;28;20265;-51
2023/08/13 04:01:16;;;;;;;5.28;1.58;;;;;;;18.44;100.00;98802.44;4186355;28;20317;-50
2023/08/13 04:03:19;;;;;;;5.97;1.00;;;;;;;18.32;100.00;98802.00;4192042;28;20223;-50
2023/08/13 04:05:27;;;;;;;1.35;0.88;;;;;;;18.40;100.00;98798.59;4190933;28;20230;-51
2023/08/13 04:07:32;;;;;;;1.58;1.17;;;;;;;18.35;100.00;98795.88;4192273;28;20211;-51
2023/08/13 04:09:34;;;;;;;2.33;1.17;;;;;;;18.41;100.00;98797.47;4191423;28;20207;-52
2023/08/13 04:11:35;;;;;;;0.90;0.90;;;;;;;18.41;100.00;98792.78;4185454;28;20199;-50
2023/08/13 04:13:37;;;;;;;1.00;0.90;;;;;;;18.39;100.00;98794.19;4194463;28;20248;-53
2023/08/13 04:15:39;;;;;;;1.38;1.27;;;;;;;18.42;100.00;98790.81;4192685;28;20308;-52
2023/08/13 04:17:41;;;;;;;4.47;1.20;;;;;;;18.41;100.00;98797.47;4195821;28;20209;-51
2023/08/13 04:19:43;;;;;;;1.92;1.50;;;;;;;18.42;100.00;98793.56;4191357;28;20725;-50
2023/08/13 04:21:45;;;;;;;1.20;1.00;;;;;;;18.43;100.00;98798.84;4189746;28;20231;-49
2023/08/13 04:23:48;;;;;;;4.95;1.08;;;;;;;18.42;100.00;98799.13;4193436;28;20240;-51
2023/08/13 04:25:50;;;;;;;1.05;0.95;;;;;;;18.42;100.00;98801.88;4194395;28;20207;-49
2023/08/13 04:27:51;;;;;;;3.67;1.13;;;;;;;18.44;100.00;98802.44;4191694;28;20215;-49
2023/08/13 04:29:53;;;;;;;2.70;0.95;;;;;;;18.45;100.00;98804.09;4196266;28;20576;-49
2023/08/13 04:31:55;;;;;;;2.25;1.08;;;;;;;18.45;100.00;98812.41;4191636;28;20219;-50
2023/08/13 04:33:57;;;;;;;1.75;1.00;;;;;;;18.47;100.00;98808.22;4184177;28;20697;-51
2023/08/13 04:35:58;;;;;;;2.55;0.95;;;;;;;18.46;100.00;98802.97;4190501;28;20222;-51
2023/08/13 04:38:00;;;;;;;1.05;0.80;;;;;;;18.44;100.00;98813.53;4188409;28;20204;-51
2023/08/13 04:40:02;;;;;;;1.00;0.90;;;;;;;18.42;100.00;98810.19;4191470;28;20207;-51
2023/08/13 04:42:04;;;;;;;2.28;1.10;;;;;;;18.39;100.00;98817.16;4191275;28;20207;-49
2023/08/13 04:44:06;;;;;;;1.08;0.98;;;;;;;18.40;100.00;98807.75;4190446;28;20223;-49
2023/08/13 04:46:08;;;;;;;4.07;1.30;;;;;;;18.26;100.00;98806.72;4189328;28;20250;-49
2023/08/13 04:48:09;;;;;;;0.80;0.80;;;;;;;18.28;100.00;98809.22;4190582;28;20203;-52
2023/08/13 04:50:13;;;;;;;1.23;1.13;;;;;;;18.34;100.00;98808.06;4191630;28;20219;-49
2023/08/13 04:52:14;;;;;;;1.58;1.00;;;;;;;18.38;100.00;98800.84;4191364;28;20629;-50
2023/08/13 04:54:16;;;;;;;2.85;1.20;;;;;;;18.38;100.00;98806.38;4191872;28;20724;-52
2023/08/13 04:56:18;;;;;;;2.58;1.40;;;;;;;18.39;100.00;98810.81;4191336;28;20203;-50
2023/08/13 04:58:20;;;;;;;1.00;0.90;;;;;;;18.39;100.00;98808.03;4190860;28;20203;-52
2023/08/13 05:00:22;;;;;;;1.58;1.05;;;;;;;18.42;100.00;98804.66;4191254;28;20223;-51
2023/08/13 05:02:23;;;;;;;1.45;1.15;;;;;;;18.45;100.00;98804.09;4192541;28;20203;-49
2023/08/13 05:04:25;;;;;;;2.35;1.20;;;;;;;18.46;100.00;98800.19;4186218;28;20218;-49
2023/08/13 05:06:27;;;;;;;2.85;1.13;;;;;;;18.44;100.00;98802.44;4191513;28;20203;-50
2023/08/13 05:08:29;;;;;;;4.95;1.58;;;;;;;18.46;100.00;98806.53;4176176;28;20548;-49
2023/08/13 05:10:32;;;;;;;2.38;1.13;;;;;;;18.50;100.00;98802.06;4189958;28;20203;-53
2023/08/13 05:12:34;;;;;;;3.03;1.15;;;;;;;18.50;100.00;98804.00;4191350;28;20239;-51
2023/08/13 05:14:36;;;;;;;3.45;1.40;;;;;;;18.51;100.00;98809.28;4192493;28;20246;-49
2023/08/13 05:16:37;;;;;;;1.20;1.10;;;;;;;18.52;100.00;98808.16;4173693;28;20211;-52
2023/08/13 05:18:42;;;;;;;2.33;1.08;;;;;;;18.55;100.00;98812.28;4191254;28;20214;-54
2023/08/13 05:20:46;;;;;;;2.45;0.98;;;;;;;18.55;100.00;98806.72;4206017;28;20585;-50
2023/08/13 05:22:47;;;;;;;3.05;0.80;;;;;;;18.57;100.00;98805.31;4189013;28;20654;-50
2023/08/13 05:24:49;;;;;;;1.33;0.98;;;;;;;18.58;100.00;98808.94;4189928;28;20219;-52
2023/08/13 05:26:51;;;;;;;1.10;1.00;;;;;;;18.60;100.00;98812.22;4189885;28;20207;-50
2023/08/13 05:28:52;;;;;;;0.90;0.90;;;;;;;18.63;100.00;98811.63;4191147;28;20211;-50
2023/08/13 05:30:54;;;;;;;1.63;1.10;;;;;;;18.66;100.00;98813.81;4185804;28;20249;-51
2023/08/13 05:32:56;;;;;;;1.48;1.17;;;;;;;18.70;100.00;98809.31;4190598;28;20309;-50
2023/08/13 05:34:58;;;;;;;2.20;1.15;;;;;;;18.74;100.00;98807.63;4190134;28;20211;-52
2023/08/13 05:36:59;;;;;;;2.17;1.40;;;;;;;18.76;100.00;98808.16;4187947;28;20272;-53
2023/08/13 05:39:01;;;;;;;2.22;1.40;;;;;;;18.76;100.00;98810.91;4190758;28;20641;-50
2023/08/13 05:41:03;;;;;;;5.80;1.40;;;;;;;18.74;100.00;98814.00;4189911;28;20292;-51
2023/08/13 05:43:05;;;;;;;7.90;1.20;;;;;;;18.78;100.00;98814.25;4188585;28;20284;-50
2023/08/13 05:45:07;;;;;;;2.95;1.10;;;;;;;18.76;100.00;98819.25;4194468;28;20212;-51
2023/08/13 05:47:09;;;;;;;2.47;1.42;;;;;;;18.78;100.00;98814.25;4190308;28;20218;-50
2023/08/13 05:49:15;;;;;;;3.60;1.83;;;;;;;18.81;100.00;98814.47;4190463;28;20204;-51
2023/08/13 05:51:16;;;;;;;1.38;1.00;;;;;;;18.84;100.00;98813.06;4192339;28;20260;-53
2023/08/13 05:53:18;;;;;;;3.83;1.65;;;;;;;18.89;100.00;98815.75;4190835;28;20285;-53
2023/08/13 05:55:22;;;;;;;2.38;1.35;;;;;;;18.93;100.00;98814.06;4189996;28;20203;-51
2023/08/13 05:57:24;;;;;;;3.25;1.45;;;;;;;18.97;100.00;98813.16;4189776;28;20260;-50
2023/08/13 05:59:27;;;;;;;2.67;1.52;;;;;;;18.98;100.00;98816.78;4192962;28;20207;-50
2023/08/13 06:01:29;;;;;;;3.90;1.58;;;;;;;18.99;100.00;98816.44;4190615;28;20304;-53
2023/08/13 06:03:30;;;;;;;4.68;1.90;;;;;;;19.02;100.00;98809.47;4207575;28;20299;-49
2023/08/13 06:05:32;;;;;;;3.38;2.63;;;;;;;19.00;100.00;98814.50;4188630;28;20215;-51
2023/08/13 06:07:34;;;;;;;2.60;1.95;;;;;;;19.07;100.00;98813.03;4190780;28;20241;-52
2023/08/13 06:09:36;;;;;;;2.10;1.92;;;;;;;19.13;100.00;98811.81;4190891;28;20207;-50
2023/08/13 06:11:38;;;;;;;2.45;1.95;;;;;;;19.17;100.00;98812.06;4185607;28;20542;-54
2023/08/13 06:13:41;;;;;;;3.25;2.88;;;;;;;19.20;100.00;98805.94;4182257;28;20220;-51
2023/08/13 06:15:43;;;;;;;2.60;2.40;;;;;;;19.24;100.00;98809.78;4186110;28;20624;-51
2023/08/13 06:17:49;;;;;;;3.47;2.40;;;;;;;19.28;100.00;98808.88;4191478;28;20203;-50
2023/08/13 06:19:51;;;;;;;2.70;2.30;;;;;;;19.34;100.00;98801.31;4191855;28;20211;-50
2023/08/13 06:21:53;;;;;;;2.58;2.38;;;;;;;19.38;100.00;98811.50;4189673;28;20234;-51
2023/08/13 06:23:55;;;;;;;2.67;2.47;;;;;;;19.42;100.00;98811.72;4189904;28;20650;-50
2023/08/13 06:25:56;;;;;;;2.97;2.78;;;;;;;19.43;100.00;98810.59;4166457;28;20208;-51
2023/08/13 06:27:58;;;;;;;4.05;2.75;;;;;;;19.28;100.00;98808.06;4187364;28;20562;-51
2023/08/13 06:30:00;;;;;;;3.38;3.08;;;;;;;19.27;100.00;98810.03;4184697;28;20211;-52
2023/08/13 06:32:11;;;;;;;3.15;2.30;;;;;;;19.21;100.00;98805.66;4190294;28;20206;-51
2023/08/13 06:34:14;;;;;;;2.78;2.50;;;;;;;19.39;100.00;98806.78;4190141;28;20314;-52
2023/08/13 06:36:16;;;;;;;2.60;2.40;;;;;;;19.45;100.00;98802.81;4176412;28;20685;-53
2023/08/13 06:38:18;;;;;;;3.50;3.20;;;;;;;19.62;100.00;98808.66;4192410;28;20199;-54
2023/08/13 06:40:20;;;;;;;3.25;3.05;;;;;;;19.64;100.00;98818.34;4185639;28;20208;-50
2023/08/13 06:42:21;;;;;;;3.97;3.67;;;;;;;19.73;100.00;98815.72;4190255;28;20303;-51
2023/08/13 06:44:23;;;;;;;4.13;3.78;;;;;;;19.61;100.00;98807.00;4193674;28;20636;-50
2023/08/13 06:46:25;;;;;;;4.45;4.05;;;;;;;19.51;100.00;98815.50;4176533;28;20200;-53
2023/08/13 06:48:27;;;;;;;3.75;3.45;;;;;;;19.57;100.00;98808.75;4175759;28;20211;-54
2023/08/13 06:50:30;;;;;;;4.05;3.75;;;;;;;19.81;100.00;98806.69;4187635;28;20341;-50
2023/08/13 06:52:32;;;;;;;4.65;4.32;;;;;;;19.89;100.00;98811.53;4209866;28;20225;-50
2023/08/13 06:54:33;;;;;;;3.85;3.55;;;;;;;20.08;100.00;98812.38;4193236;28;20608;-52
2023/08/13 06:56:36;;;;;;;4.57;4.25;;;;;;;20.30;100.00;98810.56;4191754;28;20589;-52
2023/08/13 06:58:38;;;;;;;4.15;3.55;;;;;;;20.40;100.00;98815.97;4192923;28;20206;-50
2023/08/13 07:00:44;;;;;;;3.88;3.50;;;;;;;20.45;100.00;98823.38;4192422;28;20656;-54
2023/08/13 07:02:46;;;;;;;4.22;3.70;;;;;;;20.60;100.00;98820.31;4206964;28;20233;-52
2023/08/13 07:04:48;;;;;;;4.10;3.70;;;;;;;20.86;100.00;98818.69;4175958;28;20636;-49
2023/08/13 07:06:50;;;;;;;3.65;3.00;;;;;;;20.85;100.00;98812.28;4193629;28;20640;-51
2023/08/13 07:08:52;;;;;;;4.88;3.72;;;;;;;20.99;100.00;98817.88;4188773;28;20210;-52
2023/08/13 07:10:54;;;;;;;3.75;3.45;;;;;;;21.28;100.00;98815.56;4209617;28;20209;-51
2023/08/13 07:12:56;;;;;;;3.40;3.20;;;;;;;21.43;100.00;98818.03;4187199;28;20235;-52
2023/08/13 07:14:58;;;;;;;3.58;3.28;;;;;;;22.23;100.00;98816.09;4209871;28;20303;-51
2023/08/13 07:17:00;;;;;;;3.17;2.97;;;;;;;22.63;100.00;98815.88;4190514;28;20763;-51
2023/08/13 07:19:01;;;;;;;3.17;2.90;;;;;;;22.65;100.00;98812.75;4187981;28;20618;-50
2023/08/13 07:21:06;;;;;;;2.83;2.55;;;;;;;22.78;100.00;98811.84;4195907;28;20691;-51
2023/08/13 07:23:08;;;;;;;3.22;2.92;;;;;;;22.99;100.00;98813.75;4195245;28;20258;-50
2023/08/13 07:25:14;;;;;;;2.35;2.15;;;;;;;23.23;100.00;98813.34;4194245;28;20647;-51
2023/08/13 07:27:16;;;;;;;2.78;2.10;;;;;;;23.40;98.78;98825.38;4210035;28;20610;-51
2023/08/13 07:29:17;;;;;;;2.58;2.13;;;;;;;23.34;99.28;98814.66;4193696;28;20271;-50
2023/08/13 07:31:19;;;;;;;2.42;2.22;;;;;;;23.06;97.19;98813.25;4193644;28;20210;-51
2023/08/13 07:33:21;;;;;;;3.13;2.30;;;;;;;22.37;97.20;98814.06;4193270;28;20226;-51
2023/08/13 07:35:24;;;;;;;3.10;1.98;;;;;;;22.52;99.94;98814.47;4191406;28;20209;-53
2023/08/13 07:37:26;;;;;;;2.90;2.33;;;;;;;22.74;98.74;98822.81;4197553;28;20218;-50
2023/08/13 07:39:30;;;;;;;2.05;1.80;;;;;;;22.93;99.27;98819.78;4192461;28;20207;-52
2023/08/13 07:41:31;;;;;;;2.38;2.17;;;;;;;23.31;98.42;98815.34;4192432;28;20241;-50
2023/08/13 07:43:34;;;;;;;2.08;1.98;;;;;;;23.67;98.42;98813.06;4175581;28;20747;-51
2023/08/13 07:45:35;;;;;;;3.97;2.17;;;;;;;24.15;96.09;98815.41;4192908;28;20213;-52
2023/08/13 07:47:37;;;;;;;4.53;2.17;;;;;;;24.28;95.89;98814.41;4185596;28;20337;-53
2023/08/13 07:49:39;;;;;;;2.10;1.90;;;;;;;24.57;93.18;98817.31;4197020;28;20264;-52
2023/08/13 07:51:41;;;;;;;3.00;2.15;;;;;;;24.47;93.89;98817.63;4191657;28;20202;-50
2023/08/13 07:53:43;;;;;;;1.83;1.70;;;;;;;24.52;92.79;98814.66;4193148;28;20798;-50
2023/08/13 07:55:46;;;;;;;2.60;2.05;;;;;;;23.81;93.32;98818.16;4188403;28;20238;-50
2023/08/13 07:57:48;;;;;;;2.85;1.80;;;;;;;24.10;93.02;98821.19;4194605;28;20936;-50
2023/08/13 07:59:50;;;;;;;4.43;2.15;;;;;;;23.43;94.34;98821.13;4195264;28;20214;-53
2023/08/13 08:01:51;;;;;;;2.53;1.92;;;;;;;23.70;94.76;98816.03;4192096;28;20226;-50
2023/08/13 08:03:53;;;;;;;3.90;1.85;;;;;;;23.84;93.01;98817.53;4192585;28;20230;-51
2023/08/13 08:05:55;;;;;;;3.83;2.42;;;;;;;24.05;92.73;98815.75;4192176;28;20207;-54
2023/08/13 08:07:57;;;;;;;1.85;1.73;;;;;;;23.58;86.11;98821.44;4188859;28;20264;-51
2023/08/13 08:09:58;;;;;;;2.50;1.30;;;;;;;23.69;89.80;98827.56;4175727;28;20218;-53
2023/08/13 08:12:00;;;;;;;4.15;1.63;;;;;;;23.73;83.89;98818.19;4190851;28;20264;-50
2023/08/13 08:14:02;;;;;;;2.53;1.70;;;;;;;23.89;84.99;98815.78;4184722;28;20231;-49
2023/08/13 08:16:04;;;;;;;3.00;1.60;;;;;;;23.82;83.89;98816.22;4191471;28;20537;-50
2023/08/13 08:18:06;;;;;;;1.58;1.45;;;;;;;23.48;78.79;98815.34;4175512;28;20211;-49
2023/08/13 08:20:08;;;;;;;2.13;1.45;;;;;;;22.97;82.19;98821.59;4195791;28;20202;-51
2023/08/13 08:22:10;;;;;;;1.70;1.20;;;;;;;22.85;82.01;98812.19;4184306;28;20219;-50
2023/08/13 08:24:11;;;;;;;2.28;1.50;;;;;;;22.97;82.94;98815.22;4191153;28;21017;-50
2023/08/13 08:26:13;;;;;;;2.67;1.40;;;;;;;23.11;81.96;98815.91;4190628;28;20199;-52
2023/08/13 08:28:15;;;;;;;1.98;1.48;;;;;;;23.31;84.66;98820.91;4190849;28;20353;-50
2023/08/13 08:30:16;;;;;;;4.75;1.35;;;;;;;23.57;83.37;98810.63;4191798;28;20203;-50
2023/08/13 08:32:18;;;;;;;2.22;1.20;;;;;;;23.99;85.01;98814.25;4196845;28;20206;-50
2023/08/13 08:34:20;;;;;;;1.35;1.20;;;;;;;24.26;80.97;98815.91;4194312;28;20284;-50
2023/08/13 08:36:21;;;;;;;2.63;1.35;;;;;;;23.87;75.55;98815.25;4173028;28;20624;-51
2023/08/13 08:38:23;;;;;;;3.53;1.35;;;;;;;23.89;77.76;98815.78;4193474;28;20207;-49
2023/08/13 08:40:26;;;;;;;3.47;1.25;;;;;;;24.29;77.55;98810.44;4166451;28;20273;-51
2023/08/13 08:42:32;;;;;;;4.30;1.65;;;;;;;24.64;78.27;98814.84;4191002;28;20246;-50
2023/08/13 08:44:35;;;;;;;6.07;1.13;;;;;;;24.74;76.10;98816.44;4176177;28;20203;-50
2023/08/13 08:46:38;;;;;;;3.92;1.65;;;;;;;24.84;75.59;98822.50;4175028;28;20203;-51
2023/08/13 08:48:40;;;;;;;2.45;1.30;;;;;;;24.76;73.77;98808.53;4175426;28;20207;-52
2023/08/13 08:50:43;;;;;;;3.83;1.55;;;;;;;24.77;75.65;98805.41;4174390;28;20235;-52
2023/08/13 08:52:45;;;;;;;1.45;1.00;;;;;;;24.92;73.76;98802.03;4208523;28;20198;-50
2023/08/13 08:54:48;;;;;;;2.00;1.70;;;;;;;24.81;70.64;98811.97;4186119;28;20591;-50
2023/08/13 08:56:50;;;;;;;1.33;1.00;;;;;;;24.51;66.67;98801.84;4188345;28;20684;-50
2023/08/13 08:58:52;;;;;;;2.17;0.95;;;;;;;24.58;68.56;98813.38;4188036;28;20211;-50
2023/08/13 09:01:00;;;;;;;2.08;1.35;;;;;;;24.43;69.80;98807.44;4194698;28;20206;-50
2023/08/13 09:03:03;;;;;;;1.80;0.95;;;;;;;24.17;68.36;98810.31;4190602;28;20233;-50
2023/08/13 09:05:06;;;;;;;2.92;1.40;;;;;;;24.05;68.68;98807.34;4191400;28;20207;-50
2023/08/13 09:07:08;;;;;;;1.58;1.13;;;;;;;24.04;69.64;98802.06;4192146;28;20206;-51
2023/08/13 09:09:10;;;;;;;1.65;1.00;;;;;;;24.00;71.47;98807.50;4183013;28;20203;-51
2023/08/13 09:11:12;;;;;;;4.20;1.50;;;;;;;24.04;70.26;98802.06;4206176;28;20764;-52
2023/08/13 09:13:14;;;;;;;4.68;1.20;;;;;;;24.32;68.08;98809.78;4191513;28;20237;-51
2023/08/13 09:15:16;;;;;;;2.15;1.33;;;;;;;24.40;69.46;98803.34;4191160;28;20322;-51
2023/08/13 09:17:18;;;;;;;2.15;1.10;;;;;;;24.50;68.50;98805.78;4190418;28;20866;-50
2023/08/13 09:19:23;;;;;;;10.20;1.10;;;;;;;24.19;65.75;98798.78;4190150;28;20303;-53
2023/08/13 09:21:25;;;;;;;1.63;1.00;;;;;;;24.11;67.35;98794.84;4191399;28;20215;-49
2023/08/13 09:23:27;;;;;;;4.45;1.35;;;;;;;24.23;69.59;98797.78;4190690;28;20264;-51
2023/08/13 09:25:29;;;;;;;10.25;1.20;;;;;;;24.42;68.60;98795.44;4206101;28;20652;-51
2023/08/13 09:27:31;;;;;;;3.38;1.35;;;;;;;24.57;68.26;98794.94;4172008;28;20290;-51
2023/08/13 09:29:33;;;;;;;1.98;1.10;;;;;;;24.58;65.09;98796.56;4191109;28;20665;-52
2023/08/13 09:31:35;;;;;;;6.95;1.10;;;;;;;24.40;64.93;98797.72;4173753;28;20720;-49